Reichenau, Austria
Current Conditions -  °F | °C
As of 1:20 PM on Thursday 18 Dec 2014 (Local Time) from LOWW Reporting Station
Broken Clouds Broken Clouds  
Wind Chill: 50°   Ceiling: 5800
Heat Index: 50°   Visibility: 6mi
Dew Point: 43°   Wind: 9mph
Humidity: 76%   Direction: 270°W
Pressure: 30.03"   Gusts: NA
Location:  47.7°N, 15.83°E
Report Text: LOWW 181120Z 27008KT 9999 FEW026 BKN058 10/06 Q1017 NOSIG
Loading
Personal Weather Stations






























Interactive Weather Map New forecast layout! Learn more

10-Day Weather Forecast

Advertisements
Track Severe Weather on mobile